Latest Weather Observations for Esperance

IDW60801

Issued at 11:04 pm WST Wednesday 8 July 2020 (issued every 10 minutes, with the page automatically refreshed every 10 minutes)

About weather observations | Map of weather stations | Latest weather observations for WA | Other Formats
Station Details ID: 009789 Name: ESPERANCE Lat: -33.83 Lon: 121.89 Height: 25.0 m
Data from the previous 72 hours. | See also: Recent months at Esperance
Date/Time
WST
Temp
°C
App
Temp
°C
Dew
Point
°C
Rel
Hum
%
Delta-T
°C
Wind Press
QNH
hPa
Press
MSL
hPa
Rain since
9am
mm
Dir  Spd
km/h
Gust
km/h
Spd
kts
Gust
kts
08/11:00pm 11.0 9.9 10.8 99 0.1 WNW 7 9 4 5 1021.3 1021.3 6.2
08/10:50pm 11.1 10.1 10.9 99 0.1 WNW 7 9 4 5 1021.4 1021.4 6.2
08/10:30pm 11.7 9.3 11.5 99 0.1 WNW 15 24 8 13 1021.6 1021.6 5.8
08/10:26pm 11.8 10.2 11.6 99 0.1 WNW 11 24 6 13 1021.6 1021.6 4.6
08/10:00pm 11.8 11.0 11.6 99 0.1 WSW 7 11 4 6 1021.3 1021.3 2.8
08/09:30pm 11.7 10.5 11.5 99 0.1 NW 9 15 5 8 1021.3 1021.3 2.8
08/09:00pm 12.2 11.1 12.0 99 0.1 WNW 9 13 5 7 1021.4 1021.4 2.8
08/08:58pm 12.3 11.2 12.1 99 0.1 W 9 13 5 7 1021.4 1021.4 2.8
08/08:43pm 12.1 11.4 11.9 99 0.1 W 7 13 4 7 1021.3 1021.3 2.8
08/08:30pm 12.1 10.6 11.9 99 0.1 WNW 11 13 6 7 1021.3 1021.3 2.4
08/08:00pm 12.1 10.9 11.5 96 0.3 WNW 9 11 5 6 1021.2 1021.2 2.4
08/07:52pm 12.0 10.7 11.4 96 0.3 WSW 9 15 5 8 1021.2 1021.2 2.4
08/07:32pm 12.0 9.2 11.2 95 0.4 W 17 26 9 14 1021.4 1021.4 2.0
08/07:30pm 12.0 9.5 11.2 95 0.4 WNW 15 26 8 14 1021.3 1021.3 1.4
08/07:24pm 12.1 10.0 11.2 94 0.5 WNW 13 19 7 10 1021.3 1021.3 1.4
08/07:13pm 12.1 10.3 10.8 92 0.7 WNW 11 17 6 9 1021.2 1021.2 1.4
08/07:08pm 12.1 9.9 10.7 91 0.7 WNW 13 22 7 12 1021.2 1021.2 1.4
08/07:00pm 12.1 9.0 10.3 89 0.9 WNW 17 22 9 12 1021.1 1021.1 1.4
08/06:56pm 12.2 9.5 10.3 88 1.0 W 15 22 8 12 1021.1 1021.1 1.4
08/06:30pm 12.3 10.3 10.2 87 1.1 WNW 11 15 6 8 1020.9 1020.9 1.2
08/06:10pm 12.6 10.7 10.5 87 1.1 W 11 15 6 8 1020.8 1020.8 1.2
08/06:00pm 12.8 11.3 10.5 86 1.2 WSW 9 15 5 8 1020.7 1020.7 1.2
08/05:54pm 12.9 11.4 10.4 85 1.3 WSW 9 15 5 8 1020.7 1020.7 1.2
08/05:30pm 13.0 11.1 10.4 84 1.3 W 11 17 6 9 1020.5 1020.5 0.8
08/05:00pm 13.1 11.5 10.3 83 1.4 W 9 13 5 7 1020.5 1020.5 0.8
08/04:30pm 13.4 11.9 12.0 91 0.8 WSW 11 17 6 9 1020.4 1020.4 0.8
08/04:00pm 13.9 12.2 12.6 92 0.7 WNW 13 20 7 11 1020.2 1020.2 0.8
08/03:30pm 12.9 10.5 11.3 90 0.8 WNW 15 22 8 12 1020.0 1020.0 0.8
08/03:20pm 12.6 10.1 11.0 90 0.8 WNW 15 20 8 11 1019.9 1019.9 0.8
08/03:00pm 13.5 10.7 11.4 87 1.1 WNW 17 24 9 13 1020.2 1020.2 0.4
08/02:47pm 13.5 10.6 10.9 84 1.4 W 17 24 9 13 1019.9 1019.9 0.2
08/02:31pm 12.9 9.6 10.8 87 1.1 WNW 19 33 10 18 1019.9 1019.9 0.2
08/02:30pm 12.9 9.6 10.8 87 1.1 W 19 30 10 16 1019.9 1019.9 0.0
08/02:25pm 13.2 10.4 11.3 88 1.0 W 17 24 9 13 1020.1 1020.1 0.0
08/02:01pm 14.0 10.3 10.2 78 2.0 W 20 37 11 20 1019.9 1019.9 0.0
08/02:00pm 14.1 10.3 9.9 76 2.2 W 20 39 11 21 1019.9 1019.9 0.0
08/01:30pm 16.6 12.0 8.1 57 4.3 W 22 35 12 19 1019.6 1019.6 0.0
08/01:00pm 16.2 11.0 7.4 56 4.4 W 24 39 13 21 1020.0 1020.0 0.0
08/12:30pm 15.6 10.3 6.9 56 4.3 W 24 39 13 21 1020.0 1020.0 0.0
08/12:00pm 16.1 11.3 7.3 56 4.4 W 22 33 12 18 1020.4 1020.4 0.0
08/11:30am 15.4 10.1 6.9 57 4.2 W 24 35 13 19 1020.6 1020.6 0.0
08/11:00am 16.2 12.1 7.7 57 4.2 WNW 19 32 10 17 1020.8 1020.8 0.0
08/10:30am 15.2 10.8 7.3 59 3.9 WNW 20 28 11 15 1020.9 1020.9 0.0
08/10:00am 15.0 11.1 8.5 65 3.3 WNW 19 30 10 16 1021.2 1021.2 0.0
08/09:30am 13.8 9.8 8.2 69 2.8 NW 19 26 10 14 1021.2 1021.2 0.0
08/09:00am 12.7 8.4 8.0 73 2.3 WNW 20 28 11 15 1021.1 1021.1 0.0
08/08:30am 12.1 8.1 8.2 77 1.9 WNW 19 26 10 14 1020.9 1020.9 0.0
08/08:00am 11.4 7.2 8.3 81 1.5 WNW 20 30 11 16 1020.7 1020.7 0.0
08/07:30am 10.5 7.0 8.6 88 0.9 NW 17 28 9 15 1020.3 1020.3 0.0
08/07:00am 10.0 7.1 8.1 88 0.9 WNW 13 17 7 9 1020.1 1020.1 0.0
08/06:30am 10.3 7.4 8.2 87 1.0 WNW 13 17 7 9 1019.9 1019.9 0.0
08/06:00am 10.9 7.7 8.3 84 1.3 NW 15 20 8 11 1019.6 1019.6 0.0
08/05:30am 11.3 7.3 8.3 82 1.5 NW 19 26 10 14 1019.5 1019.5 0.0
08/05:00am 11.5 7.3 8.4 81 1.5 NW 20 28 11 15 1019.3 1019.3 0.0
08/04:30am 11.7 8.1 8.4 80 1.6 NW 17 24 9 13 1019.2 1019.2 0.0
08/04:00am 11.8 7.6 8.3 79 1.7 NW 20 28 11 15 1019.3 1019.3 0.0
08/03:30am 12.0 7.8 8.1 77 1.9 NW 20 28 11 15 1019.4 1019.4 0.0
08/03:00am 12.1 7.5 8.0 76 2.0 NW 22 30 12 16 1019.3 1019.3 0.0
08/02:30am 12.5 7.9 8.0 74 2.2 NW 22 30 12 16 1019.6 1019.6 0.0
08/02:00am 12.1 7.9 7.6 74 2.2 NW 19 28 10 15 1019.5 1019.5 0.0
08/01:30am 11.7 7.4 7.2 74 2.2 NW 19 24 10 13 1019.7 1019.7 0.0
08/01:00am 12.1 7.8 7.0 71 2.4 NW 19 24 10 13 1019.7 1019.7 0.0
08/12:30am 12.4 8.5 7.1 70 2.6 NW 17 20 9 11 1019.7 1019.7 0.0
08/12:00am 12.9 8.7 7.4 69 2.7 NW 19 24 10 13 1019.9 1019.9 0.0
 
Date/Time
WST
Temp
°C
App
Temp
°C
Dew
Point
°C
Rel
Hum
%
Delta-T
°C
Wind Press
QNH
hPa
Press
MSL
hPa
Rain since
9am
mm
Dir  Spd
km/h
Gust
km/h
Spd
kts
Gust
kts
07/11:30pm 13.4 9.5 7.2 66 3.0 NW 17 24 9 13 1020.1 1020.1 0.0
07/11:00pm 13.7 10.1 6.8 63 3.3 NW 15 19 8 10 1020.2 1020.2 0.0
07/10:30pm 14.0 10.8 6.8 62 3.5 NNW 13 20 7 11 1020.4 1020.4 0.0
07/10:00pm 13.5 10.2 6.4 62 3.4 NNW 13 17 7 9 1020.6 1020.6 0.0
07/09:30pm 12.9 10.0 6.3 64 3.1 NNW 11 15 6 8 1020.6 1020.6 0.0
07/09:00pm 13.5 10.2 6.6 63 3.3 NW 13 19 7 10 1020.6 1020.6 0.0
07/08:30pm 13.5 9.7 5.9 60 3.6 NW 15 19 8 10 1020.6 1020.6 0.0
07/08:00pm 14.4 11.1 6.3 58 3.9 NW 13 17 7 9 1020.7 1020.7 0.0
07/07:30pm 15.1 10.5 6.7 57 4.1 NW 20 28 11 15 1020.7 1020.7 0.0
07/07:00pm 15.4 11.5 7.2 58 4.0 NW 17 26 9 14 1020.8 1020.8 0.0
07/06:30pm 16.0 12.4 8.2 60 3.9 NW 17 24 9 13 1020.6 1020.6 0.0
07/06:00pm 16.1 12.9 8.6 61 3.8 NW 15 20 8 11 1020.2 1020.2 0.0
07/05:30pm 16.4 12.8 8.4 59 4.1 NW 17 24 9 13 1019.8 1019.8 0.0
07/05:00pm 16.5 13.4 8.7 60 4.0 NW 15 19 8 10 1019.5 1019.5 0.0
07/04:30pm 17.1 13.5 8.5 57 4.4 NW 17 22 9 12 1019.4 1019.4 0.0
07/04:00pm 17.4 13.9 8.8 57 4.4 NW 17 24 9 13 1019.3 1019.3 0.0
07/03:30pm 17.9 14.9 9.3 57 4.5 NW 15 20 8 11 1019.3 1019.3 0.0
07/03:00pm 18.7 15.7 9.2 54 5.0 NW 15 20 8 11 1019.0 1019.0 0.0
07/02:30pm 18.8 14.7 8.7 52 5.3 WNW 20 28 11 15 1018.7 1018.7 0.0
07/02:00pm 18.8 14.9 8.5 51 5.3 NW 19 32 10 17 1018.8 1018.8 0.0
07/01:30pm 18.8 14.3 8.5 51 5.3 NW 22 33 12 18 1018.8 1018.8 0.0
07/01:00pm 18.7 14.3 8.9 53 5.1 NW 22 32 12 17 1018.9 1018.9 0.0
07/12:30pm 18.4 13.8 9.5 56 4.7 NW 24 33 13 18 1019.3 1019.3 0.0
07/12:00pm 17.7 13.1 9.6 59 4.2 NW 24 33 13 18 1019.7 1019.7 0.0
07/11:30am 17.1 12.4 9.3 60 4.1 NW 24 33 13 18 1020.1 1020.1 0.0
07/11:00am 16.3 11.1 9.0 62 3.7 NW 26 37 14 20 1020.4 1020.4 0.0
07/10:30am 15.6 10.5 9.1 65 3.3 NW 26 37 14 20 1020.7 1020.7 0.0
07/10:00am 14.8 10.3 8.7 67 3.1 NW 22 37 12 20 1020.8 1020.8 0.0
07/09:30am 13.9 8.5 8.1 68 2.9 NW 26 37 14 20 1020.8 1020.8 0.0
07/09:00am 13.2 7.9 8.3 72 2.4 NW 26 39 14 21 1020.6 1020.6 5.4
07/08:30am 12.4 7.7 7.9 74 2.2 NNW 22 32 12 17 1020.4 1020.4 5.4
07/08:00am 11.5 6.7 7.4 76 2.0 NNW 22 33 12 18 1020.3 1020.3 5.4
07/07:30am 10.9 6.1 7.2 78 1.8 NNW 22 32 12 17 1020.1 1020.1 5.4
07/07:00am 10.8 6.0 7.3 79 1.7 NNW 22 28 12 15 1020.1 1020.1 5.4
07/06:30am 10.9 6.6 7.2 78 1.8 NNW 19 28 10 15 1019.8 1019.8 5.4
07/06:00am 11.2 6.8 7.5 78 1.8 NNW 20 30 11 16 1019.6 1019.6 5.4
07/05:30am 11.5 6.0 7.4 76 2.0 NNW 26 39 14 21 1019.4 1019.4 5.4
07/05:00am 11.8 6.3 7.5 75 2.1 NNW 26 35 14 19 1019.2 1019.2 5.4
07/04:30am 11.8 6.7 7.5 75 2.1 NNW 24 35 13 19 1019.2 1019.2 5.4
07/04:00am 11.6 6.8 7.5 76 2.0 NNW 22 32 12 17 1019.3 1019.3 5.4
07/03:30am 12.1 7.1 8.0 76 2.0 NNW 24 30 13 16 1019.3 1019.3 5.4
07/03:00am 12.1 7.7 7.6 74 2.2 NNW 20 30 11 16 1019.6 1019.6 5.4
07/02:30am 12.6 8.0 8.1 74 2.2 NNW 22 30 12 16 1019.4 1019.4 5.4
07/02:00am 13.0 8.1 8.5 74 2.2 NNW 24 32 13 17 1019.4 1019.4 5.4
07/01:30am 13.0 7.9 9.1 77 2.0 NNW 26 33 14 18 1019.5 1019.5 5.4
07/01:00am 12.4 8.2 9.8 84 1.3 NNW 22 26 12 14 1019.3 1019.3 5.4
07/12:30am 12.4 8.9 10.3 87 1.1 N 19 28 10 15 1019.2 1019.2 5.4
07/12:00am 12.4 8.9 11.0 91 0.7 N 20 28 11 15 1019.3 1019.3 5.4
 
Date/Time
WST
Temp
°C
App
Temp
°C
Dew
Point
°C
Rel
Hum
%
Delta-T
°C
Wind Press
QNH
hPa
Press
MSL
hPa
Rain since
9am
mm
Dir  Spd
km/h
Gust
km/h
Spd
kts
Gust
kts
06/11:30pm 11.5 8.5 10.6 94 0.5 N 17 20 9 11 1019.5 1019.5 5.4
06/11:00pm 11.6 8.6 10.7 94 0.5 N 17 20 9 11 1019.5 1019.5 5.4
06/10:30pm 11.7 8.8 10.9 95 0.4 N 17 22 9 12 1019.7 1019.7 5.4
06/10:00pm 11.6 8.6 10.7 94 0.5 N 17 20 9 11 1019.6 1019.6 5.4
06/09:30pm 11.9 8.5 10.6 92 0.7 N 19 24 10 13 1019.6 1019.6 5.4
06/09:00pm 12.4 9.4 10.8 90 0.8 NNE 17 22 9 12 1019.6 1019.6 5.4
06/08:30pm 12.6 9.6 10.5 87 1.1 N 17 20 9 11 1019.9 1019.9 5.4
06/08:00pm 13.0 10.3 10.5 85 1.3 N 15 20 8 11 1019.8 1019.8 5.4
06/07:30pm 13.7 11.2 11.2 85 1.3 N 15 20 8 11 1019.4 1019.4 5.4
06/07:00pm 14.0 11.2 11.3 84 1.4 N 17 22 9 12 1019.3 1019.3 5.4
06/06:30pm 14.0 10.6 11.2 83 1.5 N 20 26 11 14 1018.7 1018.7 5.4
06/06:00pm 14.1 10.8 10.9 81 1.7 N 19 24 10 13 1018.5 1018.5 5.4
06/05:30pm 15.1 9.6 10.7 75 2.3 NNW 30 39 16 21 1017.5 1017.5 5.4
06/05:12pm 14.1 8.6 11.8 86 1.2 NNE 32 65 17 35 1016.7 1016.7 5.2
06/05:10pm 14.1 8.6 11.8 86 1.2 N 32 65 17 35 1016.7 1016.7 5.2
06/05:02pm 13.8 6.8 11.3 85 1.3 NNW 39 56 21 30 1018.2 1018.2 5.0
06/05:00pm 14.0 7.0 11.3 84 1.4 NNW 39 56 21 30 1018.4 1018.4 4.8
06/04:48pm 14.1 7.6 11.8 86 1.2 NW 37 57 20 31 1018.9 1018.9 3.8
06/04:45pm 14.3 8.1 11.5 83 1.5 NW 35 52 19 28 1019.4 1019.4 3.4
06/04:38pm 14.9 10.5 11.7 81 1.7 NW 26 48 14 26 1018.8 1018.8 2.2
06/04:30pm 14.4 11.8 11.9 85 1.3 WNW 17 24 9 13 1018.1 1018.1 2.2
06/04:14pm 14.7 11.6 12.2 85 1.4 W 20 28 11 15 1018.4 1018.4 2.2
06/04:00pm 15.1 11.2 12.1 82 1.6 W 24 41 13 22 1018.5 1018.5 1.8
06/03:57pm 15.3 11.4 12.1 81 1.7 W 24 41 13 22 1018.5 1018.5 1.8
06/03:35pm 16.3 13.2 12.1 76 2.3 NW 20 24 11 13 1017.6 1017.6 1.0
06/03:30pm 16.4 13.4 12.0 75 2.4 NW 19 24 10 13 1017.4 1017.4 0.8
06/03:20pm 16.7 12.9 11.0 69 3.1 NNW 22 39 12 21 1016.9 1016.9 0.8
06/03:00pm 18.6 14.5 10.2 58 4.5 N 22 32 12 17 1015.3 1015.4 0.0
06/02:30pm 19.0 14.9 8.6 51 5.4 N 20 28 11 15 1014.5 1014.6 0.0
06/02:00pm 18.1 12.3 8.1 52 5.1 N 28 37 15 20 1016.0 1016.0 0.0
06/01:30pm 18.0 11.4 7.7 51 5.2 N 32 43 17 23 1016.0 1016.0 0.0
06/01:00pm 18.2 13.4 9.0 55 4.8 N 24 33 13 18 1016.7 1016.7 0.0
06/12:30pm 19.8 15.7 8.8 49 5.8 N 20 26 11 14 1016.8 1016.8 0.0
06/12:00pm 21.7 15.1 7.9 41 7.2 NNW 32 43 17 23 1017.3 1017.3 0.0
06/11:30am 21.9 16.7 7.3 39 7.5 N 24 35 13 19 1017.2 1017.2 0.0
06/11:00am 22.0 12.1 6.7 37 7.8 NNW 48 70 26 38 1016.7 1016.7 0.0
06/10:57am 22.0 12.9 6.7 37 7.8 NNW 44 70 24 38 1016.5 1016.5 0.0
06/10:55am 22.0 13.1 6.7 37 7.8 NNW 43 70 23 38 1016.3 1016.3 0.0
06/10:42am 19.1 11.9 4.8 39 6.9 N 32 50 17 27 1016.5 1016.5 0.0
06/10:30am 18.8 11.8 4.2 38 7.0 N 30 41 16 22 1016.8 1016.8 0.0
06/10:00am 18.5 11.8 3.6 37 7.0 N 28 43 15 23 1017.5 1017.5 0.0
06/09:47am 18.5 11.3 2.8 35 7.3 N 30 46 16 25 1017.4 1017.4 0.0
06/09:30am 16.7 11.5 2.3 38 6.5 N 19 28 10 15 1018.3 1018.3 0.0
06/09:00am 16.7 11.7 1.6 36 6.7 N 17 30 9 16 1017.5 1017.5 0.0
06/08:30am 16.4 9.6 0.9 35 6.8 NNE 26 37 14 20 1017.1 1017.1 0.0
06/08:00am 15.7 8.9 0.7 36 6.5 NNE 26 41 14 22 1017.3 1017.3 0.0
06/07:30am 14.6 8.2 0.8 39 5.9 NNE 24 35 13 19 1017.7 1017.7 0.0
06/07:00am 14.5 8.1 1.1 40 5.8 NNE 24 35 13 19 1017.6 1017.6 0.0
06/06:30am 14.6 7.4 0.8 39 5.9 NNE 28 39 15 21 1017.7 1017.7 0.0
06/06:00am 14.8 7.3 1.0 39 5.9 NNE 30 43 16 23 1017.6 1017.6 0.0
06/05:30am 14.4 6.9 1.0 40 5.8 NNE 30 41 16 22 1017.5 1017.5 0.0
06/05:00am 14.4 7.3 1.3 41 5.6 N 28 39 15 21 1017.6 1017.6 0.0
06/04:30am 14.5 7.4 1.4 41 5.7 NNE 28 41 15 22 1017.7 1017.7 0.0
06/04:00am 14.4 7.3 1.3 41 5.6 NNE 28 39 15 21 1018.0 1018.0 0.0
06/03:30am 14.0 8.1 1.6 43 5.4 N 22 32 12 17 1018.1 1018.1 0.0
06/03:00am 14.0 8.6 2.3 45 5.1 NNE 20 30 11 16 1018.5 1018.5 0.0
06/02:30am 13.8 9.4 2.7 47 4.9 NNE 15 20 8 11 1018.6 1018.6 0.0
06/02:00am 13.9 9.8 2.5 46 5.0 NNE 13 19 7 10 1018.8 1018.8 0.0
06/01:30am 13.8 9.0 2.7 47 4.9 NNE 17 20 9 11 1019.0 1019.0 0.0
06/01:00am 13.6 9.2 2.5 47 4.9 NE 15 20 8 11 1019.0 1019.0 0.0
06/12:30am 14.0 9.2 2.6 46 5.1 NE 17 26 9 14 1019.3 1019.3 0.0
06/12:00am 14.4 9.2 2.6 45 5.2 NE 19 26 10 14 1019.6 1019.6 0.0
 
Date/Time
WST
Temp
°C
App
Temp
°C
Dew
Point
°C
Rel
Hum
%
Delta-T
°C
Wind Press
QNH
hPa
Press
MSL
hPa
Rain since
9am
mm
Dir  Spd
km/h
Gust
km/h
Spd
kts
Gust
kts
05/11:30pm 14.6 9.5 2.8 45 5.3 NNE 19 22 10 12 1019.9 1019.9 0.0

Other formats

Comma delimited format used in spreadsheet applications
http://www.bom.gov.au/fwo/IDW60801/IDW60801.94638.axf

JavaScript Object Notation format (JSON) in row-major order
http://www.bom.gov.au/fwo/IDW60801/IDW60801.94638.json

Data quality

Most of these data are generated automatically and are frequently updated. Quality checks on data are not normally performed. It is possible for incorrect values to appear. Refer to information at About Latest Weather Observations and please check the disclaimer before using these data.